Latest Weather Observations for Mandurah

IDW60801

Issued at 2:35 pm WST Saturday 25 October 2014 (issued every 30 minutes, with the page automatically refreshed every 10 minutes)

About weather observations | Map of weather stations | Latest weather observations for WA | Other Formats
Station Details ID: 009977 Name: MANDURAH Lat: -32.52 Lon: 115.71 Height: 3.0 m
Data from the previous 72 hours. | See also: Recent months at Mandurah
Date/Time
WST
Temp
°C
App
Temp
°C
Dew
Point
Rel
Hum
%
Delta-T
°C
Wind Press
QNH
hPa
Press
MSL
hPa
Rain
since 9 am
mm
Dir
 
Spd
km/h
Gust
km/h
Spd
kts
Gust
kts
25/02:30pm 21.6 19.2 15.4 68 3.7 WNW 22 28 12 15 1017.2 1017.2 0.0
25/02:00pm 21.2 18.7 14.1 64 4.1 WNW 20 26 11 14 1017.3 1017.3 0.0
25/01:30pm 21.3 18.9 14.5 65 4.0 WNW 20 26 11 14 1017.5 1017.5 0.0
25/01:00pm 21.4 18.8 13.1 59 4.7 WNW 19 24 10 13 1017.6 1017.6 0.0
25/12:30pm 21.2 18.7 13.4 61 4.5 W 19 24 10 13 1017.6 1017.6 0.0
25/12:00pm 20.7 17.8 12.9 61 4.4 W 20 26 11 14 1017.7 1017.7 0.0
25/11:30am 20.1 19.1 13.3 65 3.9 WSW 11 24 6 13 1017.8 1017.8 0.0
25/11:00am 21.0 18.5 12.2 57 4.9 W 17 20 9 11 1017.9 1017.9 0.0
25/10:30am 22.1 20.1 12.6 55 5.4 WSW 15 22 8 12 1017.8 1017.8 0.0
25/10:00am 21.4 19.4 12.8 58 4.9 WSW 15 22 8 12 1017.7 1017.7 0.0
25/09:30am 21.0 18.5 12.2 57 4.9 W 17 22 9 12 1017.6 1017.6 0.0
25/09:00am 20.4 18.7 12.4 60 4.5 WSW 13 20 7 11 1017.4 1017.4 0.0
25/08:30am 19.4 16.9 11.2 59 4.5 WSW 15 22 8 12 1017.1 1017.1 0.0
25/08:00am 19.4 17.0 12.7 65 3.8 WSW 17 26 9 14 1016.9 1016.9 0.0
25/07:30am 19.0 17.4 12.7 67 3.5 WSW 13 19 7 10 1016.6 1016.6 0.0
25/07:00am 18.8 17.7 13.0 69 3.3 WSW 11 17 6 9 1016.4 1016.4 0.0
25/06:30am 18.1 16.1 12.8 71 3.0 WSW 15 26 8 14 1016.1 1016.1 0.0
25/06:00am 17.6 16.0 12.7 73 2.7 WSW 13 20 7 11 1015.8 1015.8 0.0
25/05:30am 17.6 15.3 13.1 75 2.5 WSW 17 22 9 12 1015.3 1015.3 0.0
25/05:00am 17.7 15.6 13.6 77 2.3 WSW 17 24 9 13 1015.1 1015.1 0.0
25/04:30am 17.6 15.3 14.1 80 2.0 WSW 19 28 10 15 1015.0 1015.0 0.0
25/04:00am 17.8 15.9 15.2 85 1.5 W 19 28 10 15 1014.9 1014.9 0.0
25/03:30am 16.6 17.5 15.1 91 0.9 NE 4 7 2 4 1014.8 1014.8 0.0
25/03:00am 16.2 16.8 14.2 88 1.1 NE 4 7 2 4 1014.7 1014.7 0.0
25/02:30am 16.3 16.7 14.7 90 0.9 NE 6 7 3 4 1014.7 1014.7 0.0
25/02:00am 15.9 16.0 13.9 88 1.1 ENE 6 7 3 4 1014.4 1014.4 0.0
25/01:30am 15.7 16.8 13.5 87 1.2 CALM 0 4 0 2 1014.9 1014.9 0.0
25/01:00am 15.8 16.2 13.8 88 1.1 SSW 4 6 2 3 1014.9 1014.9 0.0
25/12:30am 16.6 18.0 14.4 87 1.3 CALM 0 0 0 0 1015.0 1015.0 0.0
25/12:00am 17.4 19.2 15.6 89 1.1 SSW 0 0 0 0 1015.1 1015.1 0.0
 
Date/Time
WST
Temp
°C
App
Temp
°C
Dew
Point
Rel
Hum
%
Delta-T
°C
Wind Press
QNH
hPa
Press
MSL
hPa
Rain
since 9 am
mm
Dir
 
Spd
km/h
Gust
km/h
Spd
kts
Gust
kts
24/11:30pm 17.4 18.7 15.2 87 1.3 SSW 2 4 1 2 1015.3 1015.3 0.0
24/11:00pm 17.8 19.0 14.9 83 1.7 SSW 2 4 1 2 1015.5 1015.5 0.0
24/10:30pm 17.9 18.3 14.8 82 1.8 SSW 6 7 3 4 1015.6 1015.6 0.0
24/10:00pm 18.1 18.5 14.8 81 1.9 SW 6 9 3 5 1015.8 1015.8 0.0
24/09:30pm 18.1 18.4 14.6 80 2.0 SW 6 7 3 4 1015.7 1015.7 0.0
24/09:00pm 18.2 18.8 14.3 78 2.2 SSW 4 7 2 4 1015.7 1015.7 0.0
24/08:30pm 18.2 18.3 13.9 76 2.5 SSW 6 7 3 4 1015.8 1015.8 0.0
24/08:00pm 18.5 18.3 13.6 73 2.8 SSW 7 9 4 5 1015.8 1015.8 0.0
24/07:30pm 18.9 18.5 13.1 69 3.3 S 7 13 4 7 1015.4 1015.4 0.0
24/07:00pm 19.2 18.3 12.7 66 3.6 S 9 15 5 8 1015.3 1015.3 0.0
24/06:30pm 19.6 18.5 12.1 62 4.2 SSW 9 15 5 8 1015.3 1015.3 0.0
24/06:00pm 20.3 18.3 11.5 57 4.9 SSW 13 19 7 10 1015.1 1015.1 0.0
24/05:30pm 21.2 19.5 11.2 53 5.5 SW 11 19 6 10 1015.1 1015.1 0.0
24/05:00pm 21.4 19.1 11.7 54 5.4 SW 15 20 8 11 1014.9 1014.9 0.0
24/04:30pm 21.5 18.1 11.2 52 5.7 SW 20 28 11 15 1014.9 1014.9 0.0
24/04:00pm 21.9 18.5 10.4 48 6.3 SW 19 26 10 14 1014.8 1014.8 0.0
24/03:30pm 21.9 17.8 10.1 47 6.4 SW 22 28 12 15 1014.9 1014.9 0.0
24/03:00pm 23.0 20.1 11.1 47 6.6 WSW 17 20 9 11 1014.8 1014.8 0.0
24/02:30pm 23.2 20.6 10.6 45 7.0 WSW 15 19 8 10 1015.1 1015.1 0.0
24/02:00pm 22.6 19.8 11.4 49 6.2 WSW 17 22 9 12 1015.4 1015.4 0.0
24/01:30pm 22.8 19.7 11.5 49 6.3 WSW 19 24 10 13 1015.9 1015.9 0.0
24/01:00pm 23.2 20.9 11.6 48 6.5 WSW 15 20 8 11 1016.0 1016.0 0.0
24/12:30pm 22.7 20.6 12.3 52 5.9 W 15 20 8 11 1016.3 1016.3 0.0
24/12:00pm 22.1 19.9 12.1 53 5.6 W 15 19 8 10 1016.6 1016.6 0.0
24/11:30am 21.2 19.3 11.8 55 5.2 W 13 17 7 9 1016.9 1016.9 0.0
24/11:00am 20.8 19.4 12.2 58 4.8 WNW 11 13 6 7 1017.3 1017.3 0.0
24/10:30am 20.9 20.0 12.6 59 4.7 WNW 9 11 5 6 1017.6 1017.6 0.0
24/10:00am 20.9 20.1 11.8 56 5.1 NW 7 9 4 5 1017.7 1017.7 0.0
24/09:30am 20.1 19.9 11.8 59 4.6 N 4 4 2 2 1018.1 1018.1 0.0
24/09:00am 19.2 18.1 10.7 58 4.6 NE 7 9 4 5 1018.3 1018.3 0.0
24/08:30am 18.0 17.0 11.1 64 3.7 NE 7 9 4 5 1018.0 1018.0 0.0
24/08:00am 16.9 16.1 11.0 68 3.2 NNE 6 9 3 5 1018.3 1018.3 0.0
24/07:30am 15.8 14.7 10.8 72 2.7 ENE 7 11 4 6 1018.0 1018.0 0.0
24/07:00am 15.4 14.3 10.6 73 2.5 ENE 7 11 4 6 1018.1 1018.1 0.0
24/06:30am 14.1 13.3 10.9 81 1.7 E 6 9 3 5 1017.8 1017.8 0.0
24/06:00am 13.7 13.3 11.2 85 1.3 ESE 4 6 2 3 1017.9 1017.9 0.0
24/05:30am 13.8 13.1 11.3 85 1.3 SE 6 7 3 4 1017.5 1017.5 0.0
24/05:00am 14.1 13.3 11.1 82 1.6 ESE 6 7 3 4 1017.6 1017.6 0.0
24/04:30am 14.7 13.7 11.1 79 1.9 SSE 7 9 4 5 1017.3 1017.3 0.0
24/04:00am 14.3 13.5 11.1 81 1.7 SE 6 9 3 5 1017.5 1017.5 0.0
24/03:30am 14.7 13.8 11.5 81 1.7 SE 7 11 4 6 1017.4 1017.4 0.0
24/03:00am 15.4 14.3 12.0 80 1.8 SSE 9 11 5 6 1017.5 1017.5 0.0
24/02:30am 15.4 14.6 11.8 79 1.9 SE 7 11 4 6 1017.6 1017.6 0.0
24/02:00am 15.6 14.6 12.4 81 1.7 SE 9 13 5 7 1017.6 1017.6 0.0
24/01:30am 15.5 15.2 13.3 87 1.2 SSE 7 15 4 8 1017.6 1017.6 0.0
24/01:00am 16.0 16.6 15.8 99 0.1 SSE 7 9 4 5 1017.4 1017.4 0.0
24/12:30am 15.8 16.3 15.5 98 0.2 SE 7 11 4 6 1017.7 1017.7 0.0
24/12:00am 15.9 15.8 14.9 94 0.6 SE 9 11 5 6 1017.5 1017.5 0.0
 
Date/Time
WST
Temp
°C
App
Temp
°C
Dew
Point
Rel
Hum
%
Delta-T
°C
Wind Press
QNH
hPa
Press
MSL
hPa
Rain
since 9 am
mm
Dir
 
Spd
km/h
Gust
km/h
Spd
kts
Gust
kts
23/11:30pm 16.2 16.1 14.9 92 0.7 ESE 9 11 5 6 1017.6 1017.6 0.0
23/11:00pm 17.4 17.8 15.4 88 1.2 SSE 7 11 4 6 1017.6 1017.6 0.0
23/10:30pm 17.8 17.4 15.1 84 1.6 S 11 17 6 9 1017.8 1017.8 0.0
23/10:00pm 17.7 17.2 14.8 83 1.7 S 11 15 6 8 1017.9 1017.9 0.0
23/09:30pm 17.7 17.1 14.6 82 1.8 SSW 11 19 6 10 1018.1 1018.1 0.0
23/09:00pm 17.8 17.1 14.3 80 2.0 SSW 11 20 6 11 1018.0 1018.0 0.0
23/08:30pm 18.1 17.4 14.2 78 2.2 SSW 11 19 6 10 1018.0 1018.0 0.0
23/08:00pm 18.3 17.4 13.8 75 2.6 SSW 11 19 6 10 1017.9 1017.9 0.0
23/07:30pm 18.5 17.3 12.9 70 3.1 SSW 11 19 6 10 1017.7 1017.7 0.0
23/07:00pm 18.8 17.5 12.5 67 3.5 SSW 11 19 6 10 1017.4 1017.4 0.0
23/06:30pm 19.0 17.5 11.8 63 4.0 SSW 11 19 6 10 1017.1 1017.1 0.0
23/06:00pm 19.6 17.8 12.1 62 4.2 SSW 13 19 7 10 1016.7 1016.7 0.0
23/05:30pm 19.6 17.0 11.9 61 4.3 SSW 17 28 9 15 1016.6 1016.6 0.0
23/05:00pm 20.0 17.3 13.0 64 4.0 SW 19 30 10 16 1016.5 1016.5 0.0
23/04:30pm 20.2 17.1 12.2 60 4.5 WSW 20 32 11 17 1016.2 1016.2 0.0
23/04:00pm 20.2 16.9 12.9 63 4.1 SW 22 32 12 17 1016.2 1016.2 0.0
23/03:30pm 20.5 17.1 12.5 60 4.5 SW 22 33 12 18 1016.1 1016.1 0.0
23/03:00pm 20.8 17.5 12.8 60 4.5 WSW 22 37 12 20 1016.1 1016.1 0.0
23/02:30pm 20.0 17.0 12.7 63 4.1 SW 20 32 11 17 1016.3 1016.3 0.0
23/02:00pm 19.3 17.1 13.3 68 3.4 SW 17 28 9 15 1016.4 1016.4 0.0
23/01:30pm 20.2 18.1 14.6 70 3.3 SW 19 28 10 15 1016.2 1016.2 0.0
23/01:00pm 19.9 18.9 14.5 71 3.1 S 13 20 7 11 1016.1 1016.1 0.0
23/12:30pm 19.8 17.1 13.5 67 3.6 SW 20 28 11 15 1016.1 1016.1 0.0
23/12:00pm 20.4 17.2 14.3 68 3.5 SW 24 32 13 17 1016.0 1016.0 0.0
23/11:30am 21.2 18.5 13.6 62 4.4 WSW 20 32 11 17 1016.0 1016.0 0.0
23/11:00am 21.3 18.5 14.2 64 4.1 WSW 22 32 12 17 1016.1 1016.1 0.0
23/10:30am 20.8 18.4 13.7 64 4.1 WSW 19 30 10 16 1015.9 1015.9 0.0
23/10:00am 20.9 18.3 13.8 64 4.1 WSW 20 32 11 17 1015.7 1015.7 0.0
23/09:30am 20.1 18.2 14.2 69 3.4 WSW 17 28 9 15 1015.5 1015.5 0.0
23/09:00am 20.4 18.6 14.5 69 3.4 W 17 24 9 13 1015.1 1015.1 0.8
23/08:30am 20.1 18.2 14.2 69 3.4 W 17 26 9 14 1014.9 1014.9 0.8
23/08:00am 19.4 17.1 14.0 71 3.1 W 19 26 10 14 1014.7 1014.7 0.8
23/07:30am 19.1 16.7 13.9 72 3.0 W 19 26 10 14 1014.5 1014.5 0.8
23/07:00am 18.4 16.4 13.9 75 2.6 W 17 26 9 14 1014.1 1014.1 0.8
23/06:30am 18.3 16.0 14.0 76 2.5 W 19 28 10 15 1013.8 1013.8 0.8
23/06:00am 17.9 16.0 14.2 79 2.1 W 17 26 9 14 1013.6 1013.6 0.8
23/05:30am 17.9 15.6 14.0 78 2.2 W 19 26 10 14 1013.1 1013.1 0.8
23/05:00am 17.5 15.5 14.0 80 2.0 W 17 24 9 13 1012.8 1012.8 0.8
23/04:30am 17.8 17.2 15.6 87 1.3 WSW 13 19 7 10 1012.6 1012.6 0.8
23/04:00am 17.9 15.7 15.9 88 1.2 NW 22 30 12 16 1012.4 1012.4 0.8
23/03:30am 17.8 16.3 16.3 91 0.9 NW 19 22 10 12 1012.7 1012.7 0.8
23/03:00am 17.3 15.5 15.6 90 1.0 NW 19 22 10 12 1012.8 1012.8 0.8
23/02:30am 17.5 15.9 16.5 94 0.6 WNW 20 32 11 17 1013.0 1013.0 0.8
23/02:00am 18.3 17.6 14.4 78 2.2 WSW 11 17 6 9 1013.0 1013.0 0.2
23/01:30am 18.3 17.7 14.6 79 2.1 W 11 19 6 10 1013.0 1013.0 0.2
23/01:00am 17.9 17.5 14.2 79 2.1 WSW 9 15 5 8 1012.9 1012.9 0.2
23/12:30am 18.2 17.2 14.7 80 2.0 WSW 13 19 7 10 1013.1 1013.1 0.2
23/12:00am 18.3 16.8 15.4 83 1.7 WSW 17 24 9 13 1013.6 1013.6 0.2
 
Date/Time
WST
Temp
°C
App
Temp
°C
Dew
Point
Rel
Hum
%
Delta-T
°C
Wind Press
QNH
hPa
Press
MSL
hPa
Rain
since 9 am
mm
Dir
 
Spd
km/h
Gust
km/h
Spd
kts
Gust
kts
22/11:30pm 18.3 16.9 15.6 84 1.6 WSW 17 24 9 13 1013.6 1013.6 0.2
22/11:00pm 18.3 17.2 16.3 88 1.2 WSW 17 28 9 15 1014.2 1014.2 0.2
22/10:30pm 19.2 17.6 16.1 82 1.8 W 19 28 10 15 1014.2 1014.2 0.0
22/10:00pm 19.3 17.7 16.0 81 2.0 WNW 19 22 10 12 1014.3 1014.3 0.0
22/09:30pm 18.9 17.1 15.4 80 2.1 WNW 19 26 10 14 1013.9 1013.9 0.0
22/09:00pm 19.3 16.7 16.0 81 2.0 WNW 24 33 13 18 1013.8 1013.8 0.0
22/08:30pm 19.4 16.3 15.7 79 2.2 WNW 26 33 14 18 1013.9 1013.9 0.0
22/08:00pm 19.4 17.6 15.5 78 2.3 WNW 19 26 10 14 1013.6 1013.6 0.0
22/07:30pm 19.3 17.4 15.2 77 2.4 WNW 19 24 10 13 1012.9 1012.9 0.0
22/07:00pm 19.4 16.7 15.5 78 2.3 WNW 24 33 13 18 1012.8 1012.8 0.0
22/06:30pm 19.5 16.0 15.4 77 2.4 WNW 28 33 15 18 1012.4 1012.4 0.0
22/06:00pm 19.6 15.9 16.1 80 2.1 WNW 30 37 16 20 1012.3 1012.3 0.0
22/05:30pm 20.0 16.4 17.2 84 1.7 WNW 32 43 17 23 1012.1 1012.1 0.0
22/05:00pm 21.1 19.1 17.5 80 2.2 WNW 24 33 13 18 1011.8 1011.8 0.0
22/04:30pm 21.4 20.6 16.1 72 3.2 WNW 15 19 8 10 1011.7 1011.7 0.0
22/04:00pm 21.7 20.9 17.1 75 2.8 WNW 17 24 9 13 1011.6 1011.6 0.0
22/03:30pm 21.7 19.6 17.1 75 2.8 WNW 24 30 13 16 1011.4 1011.4 0.0
22/03:00pm 21.7 18.4 17.1 75 2.8 WNW 30 39 16 21 1010.7 1010.7 0.0

Other Formats:

Comma delimited format used in spreadsheet applications
http://www.bom.gov.au/fwo/IDW60801/IDW60801.94605.axf

JavaScript Object Notation format (JSON) in row-major order
http://www.bom.gov.au/fwo/IDW60801/IDW60801.94605.json